Terminal Aerodrome Forecast
Issued by NWS Duluth, MN

Home | Current Version | Previous Version | Text Only | Print | Product List | Glossary On
Versions: 1 2 3 4 5 6 7 8 9 10 11 12 13 14 15 16 17 18 19 20 21 22
521
FTUS43 KDLH 271138
TAFINL
TAF
KINL 271138Z 2712/2812 00000KT P6SM SCT250
     FM271500 VRB03KT P6SM SCT120
     FM280500 00000KT 3SM BR BKN100
     FM280700 00000KT 6SM BR SCT080
     FM280900 VRB03KT 4SM BR SCT025=

USA.gov is the U.S. government's official web portal to all federal, state and local government web resources and services.